Metar Aviation Weather Data KORD

30°F Temp
27°F Dewpoint
% Humidity
Temperature
MPH
0 KM/H
KTS
Calm
Due North

Wind Speed
Partly Cloudy
Conditions
Pressure 1005.72 (hPa) - 29.7 (in)
Visibility 7.0 (mi) - 11 (km)

Current Conditions
KORD
Metar :KORD 140951Z 00000KT 7SM FEW120 BKN250 M01/M03 A2970 RMK AO2 SLP063 T10111028 $
Sat 14th December 04:51 am

  Metar Aviation API Data Provided by https://www.checkwx.com/ PHP scripts by weather34.com ©2019